Main page
METAR-TAF:

METAR-TAF

Airports :

Fujairah International Airport

Fujairah, United Arab Emirates

latitude: 25-06N, longitude: 056-20E, elevation: 28 m

Current weather observation

The report was made 59 minutes ago, at 17:00 UTC
Wind 4 kt from the South/Southwest
Temperature 34°C
Humidity 47%
Pressure 1001 hPa
Visibility 10 km or more
no clouds below 1500 m and no cumulonimbus

METAR: OMFJ 251700Z 20004KT CAVOK 34/21 Q1000 A2955

Time: 21:59 (17:59 UTC)

Forecast

The report was made 59 minutes ago, at 17:00 UTC
Forecast valid from 25 at 18 UTC to 27 at 00 UTC
Wind 8 kt from the West/Northwest
Visibility 10 km or more
no clouds below 1500 m and no cumulonimbus
Becoming
from 26 at 05 UTC to 26 at 07 UTC
Wind 8 kt from the East
Becoming
from 26 at 15 UTC to 26 at 17 UTC
Wind 3 kt from variable directions

TAF: OMFJ 251700Z 2518/2700 29008KT CAVOK BECMG 2605/2607 09008KT BECMG 2615/2617 VRB03KT

Weather observations and forecasts of more than 4000 airports (METAR and TAF reports).

The available stations are represented by yellow and red dots on the map.

Hover mouse over dot to see the name of the station.

Then click to see weather observations and forecasts.

To change the map : click on the green buttons with a black cross to zoom in, on the green button with a dash to zoom out, or on the green arrows for adjacent maps.


METAR-TAF: